Time;durP1;ratioP1;P1;durP2;ratioP2;P2;SDS_P1;SDS_P2;PMS_P1;PMS_P2;Temp;Humidity;BMP_temperature;BMP_pressure;BME280_temperature;BME280_humidity;BME280_pressure;Samples;Min_cycle;Max_cycle;Signal;HPM_P1;HPM_P2
2024/04/04 00:12:49;;;;;;;7.30;2.72;;;;;;;8.57;100.00;98608.09;5148475;24;20497;-93
2024/04/04 00:15:39;;;;;;;;;;;;;;;;;;;;;
2024/04/04 00:21:54;;;;;;;4.75;2.40;;;;;;;8.54;100.00;98598.72;4723475;30;20056;-93
2024/04/04 00:24:28;;;;;;;4.95;2.72;;;;;;;8.47;100.00;98592.53;4724039;30;20040;-93
2024/04/04 00:27:26;;;;;;;4.63;1.75;;;;;;;8.42;100.00;98589.59;4747768;30;20584;-92
2024/04/04 00:30:21;;;;;;;4.82;2.20;;;;;;;8.40;100.00;98586.31;4755270;30;20151;-93
2024/04/04 00:33:09;;;;;;;6.93;1.60;;;;;;;8.35;100.00;98586.00;4724534;30;20570;-93
2024/04/04 00:35:54;;;;;;;5.13;1.90;;;;;;;8.22;100.00;98589.25;4725274;30;20036;-92
2024/04/04 00:38:29;;;;;;;6.93;2.25;;;;;;;8.06;100.00;98585.69;4726318;30;20047;-92
2024/04/04 00:40:58;;;;;;;8.45;1.88;;;;;;;8.01;100.00;98596.75;4724514;30;20071;-92
2024/04/04 00:43:37;;;;;;;6.63;2.10;;;;;;;7.94;100.00;98591.38;4724708;30;20712;-92
2024/04/04 00:46:32;;;;;;;4.22;1.40;;;;;;;8.02;100.00;98589.69;4719958;30;20040;-94
2024/04/04 00:49:28;;;;;;;5.03;1.75;;;;;;;7.90;100.00;98590.06;4740168;30;20052;-91
2024/04/04 00:52:11;;;;;;;4.07;1.73;;;;;;;7.89;100.00;98591.06;4750412;30;20135;-92
2024/04/04 00:54:48;;;;;;;9.35;2.33;;;;;;;7.78;100.00;98584.41;4731323;30;20052;-90
2024/04/04 00:57:14;;;;;;;9.05;2.45;;;;;;;7.77;100.00;98587.19;4723929;30;20138;-90
2024/04/04 00:59:43;;;;;;;5.95;2.10;;;;;;;7.74;100.00;98587.53;4737341;30;20478;-91
2024/04/04 01:02:10;;;;;;;6.82;2.15;;;;;;;7.75;100.00;98592.63;4724053;30;20043;-92
2024/04/04 01:04:36;;;;;;;9.43;2.10;;;;;;;7.70;100.00;98594.94;4745788;30;20461;-93
2024/04/04 01:07:02;;;;;;;3.80;1.67;;;;;;;7.75;100.00;98592.63;4724003;30;20070;-93
2024/04/04 01:09:28;;;;;;;3.40;1.52;;;;;;;7.76;100.00;98598.69;4723010;30;20038;-90
2024/04/04 01:11:57;;;;;;;3.78;1.98;;;;;;;7.77;100.00;98595.09;4752354;30;20048;-92
2024/04/04 01:14:28;;;;;;;11.48;1.75;;;;;;;7.71;100.00;98580.78;4735600;30;20047;-93
2024/04/04 01:17:02;;;;;;;4.43;1.73;;;;;;;7.72;100.00;98587.72;4738720;30;20039;-92
2024/04/04 01:19:54;;;;;;;5.95;2.45;;;;;;;7.74;100.00;98583.09;4737662;29;20051;-93
2024/04/04 01:22:36;;;;;;;9.70;2.00;;;;;;;7.80;100.00;98587.66;4741335;30;20059;-93
2024/04/04 01:25:24;;;;;;;5.05;1.50;;;;;;;7.82;100.00;98582.22;4771334;30;20058;-93
2024/04/04 01:28:23;;;;;;;6.13;1.95;;;;;;;7.79;100.00;98579.94;4734018;30;20493;-93
2024/04/04 01:31:41;;;;;;;8.80;1.77;;;;;;;7.75;100.00;98579.47;4784575;29;20124;-93
2024/04/04 01:34:21;;;;;;;7.05;1.83;;;;;;;7.79;100.00;98583.38;4739822;30;20043;-91
2024/04/04 01:36:48;;;;;;;7.05;1.60;;;;;;;7.79;100.00;98578.13;4756271;30;20051;-91
2024/04/04 01:39:16;;;;;;;3.90;1.48;;;;;;;7.85;100.00;98588.97;4743314;30;20040;-91
2024/04/04 01:41:45;;;;;;;6.28;1.80;;;;;;;7.91;100.00;98580.38;4738484;29;20047;-92
2024/04/04 01:44:12;;;;;;;9.35;1.92;;;;;;;7.90;100.00;98584.00;4741335;30;20048;-92
2024/04/04 01:46:40;;;;;;;8.82;2.03;;;;;;;7.83;100.00;98578.63;4755137;29;20055;-91
2024/04/04 01:49:09;;;;;;;5.40;1.15;;;;;;;7.74;100.00;98580.44;4755600;30;20122;-90
2024/04/04 01:51:35;;;;;;;7.82;1.77;;;;;;;7.60;100.00;98562.81;4769754;29;20039;-93
2024/04/04 01:54:02;;;;;;;4.72;1.02;;;;;;;7.65;100.00;98570.97;4753760;30;20069;-91
2024/04/04 01:56:28;;;;;;;8.10;1.40;;;;;;;7.68;100.00;98568.81;4735431;29;20035;-90
2024/04/04 01:58:54;;;;;;;6.05;1.05;;;;;;;7.70;100.00;98568.66;4756296;30;20035;-92
2024/04/04 02:01:20;;;;;;;6.28;1.10;;;;;;;7.68;100.00;98571.44;4753218;29;20047;-91
2024/04/04 02:03:46;;;;;;;7.78;1.45;;;;;;;7.64;100.00;98566.72;4739777;30;20489;-92
2024/04/04 02:06:12;;;;;;;6.95;1.33;;;;;;;7.56;100.00;98562.31;4768163;29;20047;-91
2024/04/04 02:08:38;;;;;;;6.88;1.13;;;;;;;7.56;100.00;98578.88;4753723;30;20086;-91
2024/04/04 02:11:04;;;;;;;6.43;1.48;;;;;;;7.48;100.00;98572.84;4762905;29;20067;-92
2024/04/04 02:13:30;;;;;;;3.40;1.30;;;;;;;7.46;100.00;98575.66;4752808;30;20058;-92
2024/04/04 02:15:56;;;;;;;6.03;0.98;;;;;;;7.44;100.00;98570.56;4742034;29;20126;-92
2024/04/04 02:18:23;;;;;;;4.45;1.40;;;;;;;7.44;100.00;98570.56;4759470;30;20066;-93
2024/04/04 02:20:49;;;;;;;5.22;1.10;;;;;;;7.53;100.00;98575.81;4759291;29;20055;-92
2024/04/04 02:23:15;;;;;;;3.42;1.70;;;;;;;7.55;100.00;98572.00;4774422;30;20043;-93
2024/04/04 02:25:44;;;;;;;5.03;1.42;;;;;;;7.64;100.00;98574.59;4732439;29;20031;-92
2024/04/04 02:28:13;;;;;;;6.40;1.60;;;;;;;7.68;100.00;98573.25;4749298;30;20051;-92
2024/04/04 02:30:39;;;;;;;7.13;1.70;;;;;;;7.69;100.00;98567.03;4773846;30;20056;-90
2024/04/04 02:33:10;;;;;;;4.32;1.45;;;;;;;7.77;100.00;98577.47;4749882;30;20035;-92
2024/04/04 02:35:53;;;;;;;4.15;1.27;;;;;;;7.89;100.00;98572.66;4757564;29;20047;-93
2024/04/04 02:38:27;;;;;;;6.38;1.70;;;;;;;7.90;100.00;98578.75;4755174;30;20044;-93
2024/04/04 02:40:57;;;;;;;2.42;1.50;;;;;;;7.81;100.00;98564.81;4757973;30;20066;-92
2024/04/04 02:43:39;;;;;;;6.88;1.75;;;;;;;7.86;100.00;98574.81;4767373;30;20043;-93
2024/04/04 02:46:08;;;;;;;5.50;1.60;;;;;;;7.78;100.00;98571.25;4759026;30;20075;-92
2024/04/04 02:48:38;;;;;;;6.13;2.35;;;;;;;7.69;100.00;98572.28;4754269;30;20053;-92
2024/04/04 02:51:04;;;;;;;4.63;2.33;;;;;;;7.63;100.00;98576.41;4737052;30;20044;-92
2024/04/04 02:53:38;;;;;;;7.07;2.00;;;;;;;7.60;100.00;98573.31;4771766;29;20035;-93
2024/04/04 02:56:10;;;;;;;4.65;2.28;;;;;;;7.52;100.00;98569.72;4743521;30;20043;-92
2024/04/04 02:58:39;;;;;;;3.95;2.22;;;;;;;7.59;100.00;98574.28;4754675;30;20121;-92
2024/04/04 03:01:08;;;;;;;9.00;2.67;;;;;;;7.49;100.00;98558.72;4748595;30;20078;-93
2024/04/04 03:04:02;;;;;;;5.15;2.95;;;;;;;7.59;100.00;98561.13;4749801;29;20039;-92
2024/04/04 03:06:39;;;;;;;5.50;2.70;;;;;;;7.51;100.00;98562.00;4755591;30;20043;-93
2024/04/04 03:09:53;;;;;;;6.22;3.10;;;;;;;7.51;100.00;98562.81;4746808;30;20122;-91
2024/04/04 03:13:25;;;;;;;6.25;3.40;;;;;;;7.44;100.00;98552.16;4743322;30;20069;-93
2024/04/04 03:19:23;;;;;;;4.72;3.20;;;;;;;7.41;100.00;98547.25;4764749;30;20047;-93
2024/04/04 03:22:38;;;;;;;;;;;;;;;;;;;;;
2024/04/04 03:25:59;;;;;;;8.30;2.95;;;;;;;7.51;100.00;98562.00;4770821;30;20039;-93
2024/04/04 03:29:02;;;;;;;4.15;3.13;;;;;;;7.49;100.00;98556.09;4770109;29;20146;-93
2024/04/04 03:31:33;;;;;;;5.47;3.40;;;;;;;7.54;100.00;98562.47;4769104;30;20134;-93
2024/04/04 03:34:04;;;;;;;7.00;3.63;;;;;;;7.57;100.00;98563.94;4744054;30;20035;-92
2024/04/04 03:36:31;;;;;;;7.13;4.00;;;;;;;7.62;100.00;98558.16;4740243;30;20036;-93
2024/04/04 03:38:57;;;;;;;6.35;3.55;;;;;;;7.68;100.00;98560.09;4762484;29;20485;-93
2024/04/04 03:41:27;;;;;;;8.90;3.67;;;;;;;7.71;100.00;98561.59;4748002;30;20048;-92
2024/04/04 03:44:05;;;;;;;7.18;3.47;;;;;;;7.72;100.00;98569.31;4756121;30;20043;-93
2024/04/04 03:46:41;;;;;;;7.78;3.33;;;;;;;7.70;100.00;98566.03;4777280;29;20039;-93
2024/04/04 03:49:17;;;;;;;7.30;3.72;;;;;;;7.60;100.00;98557.53;4796482;29;20067;-93
2024/04/04 03:52:01;;;;;;;9.55;3.45;;;;;;;7.64;100.00;98571.97;4749641;29;20070;-93
2024/04/04 03:54:38;;;;;;;6.85;3.10;;;;;;;7.61;100.00;98569.69;4749851;29;20130;-92
2024/04/04 03:57:12;;;;;;;8.38;2.92;;;;;;;7.60;100.00;98568.84;4765759;30;20082;-93
2024/04/04 03:59:41;;;;;;;4.57;3.25;;;;;;;7.57;100.00;98569.19;4755011;29;20057;-92
2024/04/04 04:02:07;;;;;;;6.82;3.38;;;;;;;7.60;100.00;98576.75;4747281;30;20058;-92
2024/04/04 04:04:36;;;;;;;8.27;3.50;;;;;;;7.67;100.00;98582.97;4743351;29;20040;-91
2024/04/04 04:07:02;;;;;;;11.25;3.63;;;;;;;7.63;100.00;98584.28;4757473;30;20039;-92
2024/04/04 04:09:28;;;;;;;4.70;2.75;;;;;;;7.62;100.00;98589.72;4753891;30;20077;-93
2024/04/04 04:11:57;;;;;;;7.35;3.30;;;;;;;7.63;100.00;98602.69;4760492;30;20051;-92
2024/04/04 04:14:23;;;;;;;5.65;2.85;;;;;;;7.62;100.00;98606.31;4755328;30;20047;-92
2024/04/04 04:16:54;;;;;;;10.75;3.85;;;;;;;7.56;100.00;98599.91;4756750;30;20051;-92
2024/04/04 04:19:29;;;;;;;9.40;3.47;;;;;;;7.59;100.00;98601.41;4750662;30;20059;-92
2024/04/04 04:22:23;;;;;;;8.15;4.18;;;;;;;7.59;100.00;98603.22;4722885;30;20088;-92
2024/04/04 04:25:09;;;;;;;4.85;2.80;;;;;;;7.55;100.00;98611.44;4737041;30;20703;-92
2024/04/04 04:27:41;;;;;;;6.22;3.40;;;;;;;7.53;100.00;98607.34;4733974;30;20572;-93
2024/04/04 04:30:51;;;;;;;;;;;;;;;;;;;;;
2024/04/04 04:33:43;;;;;;;9.45;2.72;;;;;;;7.50;100.00;98603.22;4751082;30;20105;-92
2024/04/04 04:36:12;;;;;;;9.60;2.85;;;;;;;7.50;100.00;98602.44;4735530;30;20101;-92
2024/04/04 04:38:38;;;;;;;5.03;2.13;;;;;;;7.42;100.00;98601.44;4726698;30;20036;-91
2024/04/04 04:41:15;;;;;;;2.78;1.98;;;;;;;7.52;100.00;98608.31;4738196;30;20053;-92
2024/04/04 04:43:44;;;;;;;4.45;2.05;;;;;;;7.43;100.00;98610.16;4733531;30;20035;-92
2024/04/04 04:46:21;;;;;;;6.68;2.80;;;;;;;7.48;100.00;98613.13;4738105;30;20044;-91
2024/04/04 04:48:53;;;;;;;4.88;2.50;;;;;;;7.47;100.00;98616.72;4767822;30;20028;-92
2024/04/04 04:51:22;;;;;;;10.52;2.30;;;;;;;7.43;100.00;98623.31;4748596;30;20134;-92
2024/04/04 04:54:23;;;;;;;5.45;2.17;;;;;;;7.47;100.00;98615.91;4726707;30;20040;-92
2024/04/04 04:56:59;;;;;;;6.30;1.85;;;;;;;7.52;100.00;98634.59;4737813;30;20043;-91
2024/04/04 04:59:31;;;;;;;5.10;2.10;;;;;;;7.51;100.00;98631.19;4739191;30;20135;-93
2024/04/04 05:01:59;;;;;;;7.40;2.42;;;;;;;7.55;100.00;98621.94;4712887;30;20113;-92
2024/04/04 05:04:48;;;;;;;14.48;2.33;;;;;;;7.57;100.00;98616.53;4744747;30;20043;-92
2024/04/04 05:07:21;;;;;;;5.57;2.08;;;;;;;7.63;100.00;98622.94;4752663;30;20058;-93
2024/04/04 05:09:52;;;;;;;7.82;2.10;;;;;;;7.62;100.00;98622.09;4737978;30;20060;-92
2024/04/04 05:12:24;;;;;;;5.80;2.58;;;;;;;7.62;100.00;98622.09;4750595;30;20059;-91
2024/04/04 05:15:02;;;;;;;8.32;2.67;;;;;;;7.61;100.00;98620.47;4739152;30;20682;-93
2024/04/04 05:17:29;;;;;;;5.93;2.28;;;;;;;7.59;100.00;98614.56;4738560;30;20281;-91
2024/04/04 05:20:04;;;;;;;7.15;2.25;;;;;;;7.62;100.00;98626.53;4753186;30;20601;-93
2024/04/04 05:22:38;;;;;;;6.97;2.78;;;;;;;7.61;100.00;98631.00;4742095;30;20035;-92
2024/04/04 05:25:15;;;;;;;8.65;3.20;;;;;;;7.68;100.00;98645.09;4755263;30;20560;-93
2024/04/04 05:27:56;;;;;;;6.13;2.20;;;;;;;7.79;100.00;98661.47;4767320;30;20565;-92
2024/04/04 05:30:34;;;;;;;6.68;2.35;;;;;;;7.88;100.00;98655.22;4753790;29;20058;-93
2024/04/04 05:33:15;;;;;;;7.68;2.45;;;;;;;7.88;100.00;98647.31;4754387;30;20109;-93
2024/04/04 05:35:58;;;;;;;6.38;2.00;;;;;;;7.91;100.00;98648.78;4733520;30;20063;-93
2024/04/04 05:38:37;;;;;;;5.25;2.35;;;;;;;7.93;100.00;98650.22;4753761;29;20050;-92
2024/04/04 05:41:14;;;;;;;3.05;1.98;;;;;;;8.04;100.00;98659.56;4753942;30;20044;-91
2024/04/04 05:43:40;;;;;;;5.50;2.33;;;;;;;8.03;100.00;98664.97;4755280;29;20045;-93
2024/04/04 05:46:14;;;;;;;7.90;2.20;;;;;;;8.01;100.00;98657.25;4743843;30;20139;-92
2024/04/04 05:48:48;;;;;;;5.35;2.45;;;;;;;8.07;100.00;98664.47;4771762;30;20035;-93
2024/04/04 05:51:20;;;;;;;6.45;2.25;;;;;;;8.17;100.00;98679.25;4746448;29;20103;-93
2024/04/04 05:54:09;;;;;;;11.23;2.60;;;;;;;8.18;100.00;98681.72;4741886;29;20052;-93
2024/04/04 05:56:38;;;;;;;7.35;2.40;;;;;;;8.22;100.00;98695.31;4759640;29;20044;-92
2024/04/04 05:59:09;;;;;;;4.13;2.28;;;;;;;8.22;100.00;98684.78;4743006;29;20039;-94
2024/04/04 06:01:57;;;;;;;5.95;2.78;;;;;;;8.33;100.00;98686.22;4750665;29;20040;-92
2024/04/04 06:04:30;;;;;;;6.10;2.40;;;;;;;8.33;100.00;98691.47;4757405;30;20065;-92
2024/04/04 06:07:02;;;;;;;5.63;2.90;;;;;;;8.35;100.00;98701.84;4756300;30;20042;-91
2024/04/04 06:09:39;;;;;;;5.40;2.63;;;;;;;8.40;100.00;98696.88;4756186;30;20118;-91
2024/04/04 06:12:27;;;;;;;6.32;2.92;;;;;;;8.36;100.00;98696.41;4749427;30;20050;-93
2024/04/04 06:15:03;;;;;;;10.27;2.90;;;;;;;8.42;100.00;98701.00;4756458;30;20066;-92
2024/04/04 06:17:29;;;;;;;5.60;2.53;;;;;;;8.47;100.00;98718.91;4736855;30;20090;-91
2024/04/04 06:20:24;;;;;;;6.45;2.90;;;;;;;8.51;100.00;98720.19;4740856;30;20093;-91
2024/04/04 06:23:01;;;;;;;4.88;2.78;;;;;;;8.51;100.00;98716.72;4738651;30;20078;-93
2024/04/04 06:25:32;;;;;;;5.38;2.95;;;;;;;8.52;100.00;98710.47;4767187;30;20077;-93
2024/04/04 06:27:58;;;;;;;5.03;2.45;;;;;;;8.50;100.00;98713.28;4752773;30;20409;-91
2024/04/04 06:30:27;;;;;;;7.43;2.97;;;;;;;8.46;100.00;98704.06;4743915;30;20040;-92
2024/04/04 06:32:59;;;;;;;6.47;3.45;;;;;;;8.49;100.00;98722.16;4751251;30;20700;-92
2024/04/04 06:35:40;;;;;;;7.63;3.42;;;;;;;8.45;100.00;98723.50;4744128;30;20035;-92
2024/04/04 06:38:12;;;;;;;6.55;3.20;;;;;;;8.29;100.00;98722.63;4740096;29;20046;-92
2024/04/04 06:40:41;;;;;;;9.68;3.83;;;;;;;8.25;100.00;98726.56;4736009;30;20043;-93
2024/04/04 06:43:14;;;;;;;8.20;3.53;;;;;;;8.19;100.00;98728.09;4752976;30;20444;-94
2024/04/04 06:45:43;;;;;;;9.50;4.15;;;;;;;8.06;100.00;98720.72;4754843;30;20059;-92
2024/04/04 06:48:10;;;;;;;9.75;4.60;;;;;;;8.00;100.00;98723.22;4739232;30;20043;-93
2024/04/04 06:50:45;;;;;;;7.13;4.10;;;;;;;7.99;100.00;98732.09;4754776;29;20059;-93
2024/04/04 06:53:16;;;;;;;6.72;4.30;;;;;;;7.89;100.00;98733.13;4754669;30;20047;-93
2024/04/04 06:55:54;;;;;;;7.22;4.30;;;;;;;7.86;100.00;98733.47;4749833;29;20046;-94
2024/04/04 06:58:26;;;;;;;6.63;4.53;;;;;;;7.73;100.00;98718.22;4739553;30;20048;-92
2024/04/04 07:01:00;;;;;;;7.05;4.40;;;;;;;7.73;100.00;98726.09;4751306;29;20490;-92
2024/04/04 07:03:49;;;;;;;9.07;5.20;;;;;;;7.68;100.00;98717.88;4767540;30;20039;-93
2024/04/04 07:06:16;;;;;;;7.75;4.90;;;;;;;7.74;100.00;98722.47;4742436;30;20043;-92
2024/04/04 07:08:45;;;;;;;13.85;5.72;;;;;;;7.87;100.00;98727.22;4743504;30;20035;-92
2024/04/04 07:11:17;;;;;;;7.20;4.80;;;;;;;7.80;100.00;98721.00;4742242;30;20055;-90
2024/04/04 07:13:48;;;;;;;6.82;4.57;;;;;;;7.75;100.00;98718.88;4755653;29;20078;-92
2024/04/04 07:16:14;;;;;;;7.72;4.35;;;;;;;7.73;100.00;98725.28;4773115;30;20619;-89
2024/04/04 07:18:41;;;;;;;4.88;4.43;;;;;;;7.81;100.00;98738.41;4756623;30;20077;-91
2024/04/04 07:21:07;;;;;;;6.25;5.55;;;;;;;7.78;100.00;98729.06;4757264;30;20043;-92
2024/04/04 07:23:36;;;;;;;6.47;5.22;;;;;;;7.66;100.00;98722.50;4742199;30;20054;-91
2024/04/04 07:26:05;;;;;;;8.07;4.85;;;;;;;7.66;100.00;98735.66;4772571;30;20485;-91
2024/04/04 07:28:42;;;;;;;6.80;4.97;;;;;;;7.79;100.00;98732.47;4770726;30;20051;-91
2024/04/04 07:31:08;;;;;;;7.57;5.45;;;;;;;7.75;100.00;98739.91;4756826;30;20039;-92
2024/04/04 07:33:37;;;;;;;11.32;5.68;;;;;;;7.81;100.00;98739.25;4739171;30;20047;-91
2024/04/04 07:36:14;;;;;;;11.95;5.65;;;;;;;7.79;100.00;98743.00;4742742;30;20112;-92
2024/04/04 07:39:04;;;;;;;12.40;6.50;;;;;;;7.85;100.00;98742.31;4742072;29;20043;-92
2024/04/04 07:42:00;;;;;;;;;;;;;;;7.72;100.00;98750.78;4765068;29;20396;-92
2024/04/04 07:45:21;;;;;;;8.98;4.85;;;;;;;7.71;100.00;98757.00;4763696;29;19917;-92
2024/04/04 07:53:03;;;;;;;7.53;6.55;;;;;;;7.84;100.00;98751.22;4757162;30;20043;-94
2024/04/04 08:07:54;;;;;;;7.80;6.50;;;;;;;8.04;100.00;98767.44;4758840;30;20057;-92
2024/04/04 08:11:59;;;;;;;;;;;;;;;;;;;;;
2024/04/04 08:27:52;;;;;;;7.63;5.15;;;;;;;8.10;100.00;98757.22;4756071;29;20058;-93
2024/04/04 08:31:38;;;;;;;6.25;4.70;;;;;;;8.25;100.00;98763.41;4740185;29;20509;-95
2024/04/04 08:34:56;;;;;;;5.60;4.15;;;;;;;8.32;100.00;98771.44;4726793;30;20047;-92
2024/04/04 08:57:51;;;;;;;2.75;1.30;;;;;;;8.88;100.00;98785.50;4733056;30;20517;-94
2024/04/04 09:25:12;;;;;;;;;;;;;;;;;;;;;
2024/04/04 09:28:07;;;;;;;1.65;0.43;;;;;;;9.10;100.00;98744.34;4617324;30;20058;-93
2024/04/04 09:32:20;;;;;;;0.38;0.38;;;;;;;9.14;100.00;98764.06;4640869;30;20056;-93
2024/04/04 09:38:59;;;;;;;0.32;0.32;;;;;;;9.24;100.00;98760.38;4693338;30;20045;-92
2024/04/04 09:42:29;;;;;;;0.65;0.40;;;;;;;9.30;100.00;98752.59;4757885;30;20062;-94
2024/04/04 09:45:53;;;;;;;0.60;0.60;;;;;;;9.38;100.00;98756.97;4744333;29;20055;-95
2024/04/04 09:50:05;;;;;;;;;;;;;;;;;;;;;
2024/04/04 10:06:17;;;;;;;1.30;0.47;;;;;;;9.46;100.00;98769.25;4766185;30;20086;-93
2024/04/04 10:09:43;;;;;;;0.60;0.52;;;;;;;9.55;100.00;98770.84;4677370;30;20164;-93
2024/04/04 10:12:53;;;;;;;;;;;;;;;;;;;;;
2024/04/04 10:21:19;;;;;;;0.73;0.60;;;;;;;9.61;100.00;98782.50;4644308;30;20274;-95
2024/04/04 10:28:57;;;;;;;0.80;0.68;;;;;;;9.80;100.00;98789.06;4626251;30;20058;-93
2024/04/04 10:32:00;;;;;;;1.80;0.80;;;;;;;9.83;100.00;98792.31;4637416;30;20527;-91
2024/04/04 10:47:54;;;;;;;0.88;0.63;;;;;;;9.73;100.00;98796.03;4636340;30;20069;-93
2024/04/04 10:51:14;;;;;;;1.45;0.98;;;;;;;9.72;100.00;98796.22;4695898;30;20052;-94
2024/04/04 10:55:48;;;;;;;1.77;1.05;;;;;;;9.68;100.00;98798.44;4689052;30;20082;-92
2024/04/04 11:00:10;;;;;;;;;;;;;;;;;;;;;
2024/04/04 11:11:29;;;;;;;5.20;1.90;;;;;;;9.75;100.00;98807.25;4696853;30;20052;-96
2024/04/04 11:31:55;;;;;;;3.30;2.22;;;;;;;9.85;100.00;98764.78;4642759;30;20057;-92
2024/04/04 12:14:09;;;;;;;3.22;2.05;;;;;;;10.20;100.00;98735.19;4586389;31;20085;-95
2024/04/04 12:22:43;;;;;;;;;;;;;;;;;;;;;
2024/04/04 12:35:32;;;;;;;2.58;1.38;;;;;;;11.18;100.00;98733.13;4610151;31;20187;-92
2024/04/04 12:42:23;;;;;;;3.53;1.00;;;;;;;11.51;100.00;98729.13;4595399;31;20632;-94
2024/04/04 12:50:13;;;;;;;2.67;0.90;;;;;;;11.74;100.00;98722.75;4597542;31;20060;-93
2024/04/04 12:57:48;;;;;;;4.57;0.75;;;;;;;11.84;100.00;98709.16;4592822;31;20066;-94
2024/04/04 13:02:02;;;;;;;9.50;1.40;;;;;;;11.79;100.00;98694.69;4547058;31;20364;-94
2024/04/04 13:21:43;;;;;;;;;;;;;;;;;;;;;
2024/04/04 13:30:30;;;;;;;6.15;1.23;;;;;;;11.97;100.00;98698.66;4610617;31;20103;-93
2024/04/04 14:04:21;;;;;;;;;;;;;;;;;;;;;
2024/04/04 14:12:46;;;;;;;;;;;;;;;;;;;;;
2024/04/04 14:17:26;;;;;;;;;;;;;;;;;;;;;
2024/04/04 15:44:59;;;;;;;2.65;0.40;;;;;;;10.78;100.00;98533.56;4618488;30;20047;-94
2024/04/04 15:52:45;;;;;;;;;;;;;;;10.74;100.00;98532.31;4653162;30;20137;-94
2024/04/04 17:07:03;;;;;;;3.50;0.50;;;;;;;11.10;100.00;98471.53;5801408;24;20074;-83
2024/04/04 17:09:30;;;;;;;1.42;0.50;;;;;;;11.06;100.00;98465.00;4760094;30;20052;-80
2024/04/04 17:11:55;;;;;;;4.63;0.70;;;;;;;11.11;100.00;98473.97;4754428;29;20147;-83
2024/04/04 17:14:26;;;;;;;2.20;0.50;;;;;;;11.15;100.00;98466.44;4761314;29;20043;-89
2024/04/04 17:17:14;;;;;;;3.65;0.50;;;;;;;11.03;100.00;98447.69;4756249;29;20058;-84
2024/04/04 17:20:27;;;;;;;2.15;0.65;;;;;;;11.07;100.00;98454.22;4756491;29;20048;-91
2024/04/04 17:28:03;;;;;;;;;;;;;;;;;;;;;
2024/04/04 17:32:09;;;;;;;7.57;0.95;;;;;;;11.11;100.00;98438.78;4704016;30;20165;-92
2024/04/04 17:35:11;;;;;;;14.45;1.20;;;;;;;11.04;100.00;98434.28;4618385;30;20055;-95
2024/04/04 17:42:12;;;;;;;6.68;1.13;;;;;;;10.96;100.00;98423.88;4680687;30;20084;-92
2024/04/04 17:44:47;;;;;;;6.50;1.27;;;;;;;11.00;100.00;98427.78;4655311;30;20049;-95
2024/04/04 17:52:08;;;;;;;11.63;1.95;;;;;;;10.91;100.00;98428.94;4749732;30;20121;-95
2024/04/04 17:54:34;;;;;;;12.73;1.60;;;;;;;10.81;100.00;98407.34;4732036;29;20444;-93
2024/04/04 18:01:03;;;;;;;9.93;1.70;;;;;;;10.87;100.00;98419.78;4770385;30;20187;-89
2024/04/04 18:03:35;;;;;;;9.43;1.50;;;;;;;10.84;100.00;98401.66;4753886;30;20124;-95
2024/04/04 18:07:08;;;;;;;13.20;2.17;;;;;;;10.79;100.00;98412.84;4702368;30;20111;-96
2024/04/04 18:40:17;;;;;;;21.55;3.00;;;;;;;10.38;100.00;98335.19;4928624;24;20050;-90
2024/04/04 18:43:27;;;;;;;19.92;3.08;;;;;;;10.40;100.00;98333.16;4790070;29;20400;-90
2024/04/04 18:46:26;;;;;;;18.42;2.90;;;;;;;10.29;100.00;98324.78;4809754;29;20097;-91
2024/04/04 18:49:45;;;;;;;22.48;4.57;;;;;;;10.37;100.00;98330.88;4771177;29;20092;-88
2024/04/04 18:52:19;;;;;;;19.20;3.50;;;;;;;10.27;100.00;98320.72;4763083;29;20037;-88
2024/04/04 18:55:02;;;;;;;;;;;;;;;;;;;;;
2024/04/04 19:06:49;;;;;;;13.80;2.08;;;;;;;10.21;100.00;98300.38;4787648;30;20897;-94
2024/04/04 19:14:06;;;;;;;15.27;2.00;;;;;;;10.12;100.00;98291.78;4750230;30;20178;-91
2024/04/04 19:21:29;;;;;;;10.35;1.48;;;;;;;10.12;100.00;98308.44;4685526;30;20158;-85
2024/04/04 19:23:58;;;;;;;6.38;1.05;;;;;;;10.10;100.00;98288.50;4664806;30;20046;-90
2024/04/04 19:31:12;;;;;;;6.05;1.17;;;;;;;10.01;100.00;98243.81;4701854;30;20123;-89
2024/04/04 19:33:41;;;;;;;3.75;0.68;;;;;;;10.03;100.00;98256.81;4702346;30;20071;-87
2024/04/04 19:53:37;;;;;;;;;;;;;;;;;;;;;
2024/04/04 20:09:35;;;;;;;1.15;0.65;;;;;;;10.10;100.00;98182.94;4786032;29;20054;-94
2024/04/04 20:12:47;;;;;;;1.77;0.60;;;;;;;10.14;100.00;98185.00;4713946;30;20045;-90
2024/04/04 20:23:06;;;;;;;3.28;0.70;;;;;;;10.25;100.00;98167.78;4639262;30;20462;-89
2024/04/04 20:25:51;;;;;;;5.82;1.23;;;;;;;10.36;100.00;98176.13;4637230;30;20054;-88
2024/04/04 20:28:55;;;;;;;3.85;1.00;;;;;;;10.42;100.00;98156.81;4625688;31;20055;-89
2024/04/04 20:31:36;;;;;;;4.00;1.02;;;;;;;10.50;100.00;98169.06;4623607;30;20194;-88
2024/04/04 20:38:53;;;;;;;4.28;1.30;;;;;;;10.62;100.00;98140.25;4613239;30;20055;-86
2024/04/04 20:54:21;;;;;;;7.45;1.95;;;;;;;10.73;100.00;98115.03;4815715;29;20041;-91
2024/04/04 20:57:36;;;;;;;9.40;2.15;;;;;;;10.76;100.00;98104.88;4788353;29;20034;-90
2024/04/04 21:00:28;;;;;;;12.65;2.22;;;;;;;10.78;100.00;98100.19;4731524;30;20043;-89
2024/04/04 21:02:55;;;;;;;10.65;2.88;;;;;;;10.76;100.00;98091.69;4757862;30;20062;-86
2024/04/04 21:06:31;;;;;;;12.48;3.15;;;;;;;10.87;100.00;98081.50;4757343;30;20126;-94
2024/04/04 21:09:55;;;;;;;14.65;3.00;;;;;;;10.89;100.00;98061.75;4738068;30;20048;-89
2024/04/04 21:13:09;;;;;;;12.60;2.55;;;;;;;10.90;100.00;98054.66;4699106;30;20068;-88
2024/04/04 21:16:29;;;;;;;16.13;2.75;;;;;;;10.96;100.00;98045.91;4726107;30;20043;-91
2024/04/04 21:19:33;;;;;;;19.38;3.25;;;;;;;10.98;100.00;98048.34;4745179;30;20115;-88
2024/04/04 21:22:19;;;;;;;18.85;3.28;;;;;;;10.94;100.00;98042.63;4746587;30;20460;-88
2024/04/04 21:25:04;;;;;;;25.93;3.27;;;;;;;11.00;100.00;98039.19;4744697;30;20406;-91
2024/04/04 21:27:39;;;;;;;22.73;3.60;;;;;;;11.07;100.00;98030.44;4740864;30;20044;-87
2024/04/04 21:30:06;;;;;;;16.95;3.15;;;;;;;11.10;100.00;98028.16;4743563;29;20047;-81
2024/04/04 21:32:41;;;;;;;18.63;3.05;;;;;;;11.16;100.00;98015.97;4772451;29;20066;-87
2024/04/04 21:35:33;;;;;;;22.80;3.40;;;;;;;11.09;100.00;97996.66;4763905;29;20039;-88
2024/04/04 21:38:02;;;;;;;16.52;2.97;;;;;;;11.14;100.00;98010.06;4761724;29;20050;-84
2024/04/04 21:40:28;;;;;;;15.40;3.08;;;;;;;11.14;100.00;97994.22;4756868;29;20089;-85
2024/04/04 21:42:58;;;;;;;16.15;2.50;;;;;;;11.17;100.00;97999.06;4772890;29;20030;-83
2024/04/04 21:45:33;;;;;;;14.48;2.30;;;;;;;11.25;100.00;97984.81;4771384;29;20042;-86
2024/04/04 21:47:59;;;;;;;6.53;1.85;;;;;;;11.20;100.00;97964.28;4764334;29;20031;-84
2024/04/04 21:50:34;;;;;;;15.57;2.00;;;;;;;11.25;100.00;97969.75;4766722;29;20138;-84
2024/04/04 21:53:24;;;;;;;10.50;2.45;;;;;;;11.27;100.00;97961.63;4778311;29;20043;-87
2024/04/04 21:56:21;;;;;;;7.13;2.08;;;;;;;11.25;100.00;97945.97;4769518;29;20055;-88
2024/04/04 22:02:14;;;;;;;7.72;1.05;;;;;;;11.31;100.00;97954.09;4783969;29;20104;-87
2024/04/04 22:04:45;;;;;;;7.20;1.17;;;;;;;11.31;100.00;97954.09;4771412;29;20111;-88
2024/04/04 22:07:49;;;;;;;4.82;1.00;;;;;;;11.29;100.00;97946.38;4767041;29;20393;-91
2024/04/04 22:10:22;;;;;;;6.78;1.20;;;;;;;11.29;100.00;97951.66;4753747;29;20051;-89
2024/04/04 22:13:13;;;;;;;3.90;1.13;;;;;;;11.28;100.00;97950.00;4777638;29;20050;-89
2024/04/04 22:15:42;;;;;;;7.03;1.45;;;;;;;11.26;100.00;97952.06;4748871;29;20059;-86
2024/04/04 22:18:22;;;;;;;5.85;1.02;;;;;;;11.26;100.00;97960.00;4778329;29;20054;-86
2024/04/04 22:21:13;;;;;;;2.75;0.70;;;;;;;11.26;100.00;97950.22;4766630;29;20138;-87
2024/04/04 22:23:45;;;;;;;3.05;0.70;;;;;;;11.26;100.00;97965.28;4781757;29;20564;-88
2024/04/04 22:26:58;;;;;;;2.15;0.70;;;;;;;11.28;100.00;97968.53;4780861;29;20096;-88
2024/04/04 22:29:40;;;;;;;2.65;0.50;;;;;;;11.28;100.00;97965.88;4764398;30;20080;-86
2024/04/04 22:32:27;;;;;;;4.50;0.60;;;;;;;11.27;100.00;97956.34;4753172;29;20816;-90
2024/04/04 22:35:52;;;;;;;2.47;0.57;;;;;;;11.29;100.00;97949.81;4754747;30;20048;-90
2024/04/04 22:38:31;;;;;;;5.82;1.20;;;;;;;11.20;100.00;97940.50;4755825;29;20043;-89
2024/04/04 22:40:59;;;;;;;3.88;0.85;;;;;;;11.25;100.00;97947.78;4755125;29;20050;-85
2024/04/04 22:43:31;;;;;;;6.85;0.85;;;;;;;11.21;100.00;97938.66;4775339;29;20051;-80
2024/04/04 22:46:05;;;;;;;7.70;1.55;;;;;;;11.32;100.00;97943.28;4757622;29;20043;-90
2024/04/04 22:48:36;;;;;;;6.50;0.90;;;;;;;11.26;100.00;97939.66;4767163;30;20068;-84
2024/04/04 22:51:09;;;;;;;7.80;1.02;;;;;;;11.23;100.00;97921.56;4785789;30;20112;-84